Terminal Aerodrome Forecast
Issued by NWS

Home | Current Version | Previous Version | Text Only | Print | Product List | Glossary On
Versions: 1 2 3 4 5 6 7 8 9 10 11 12 13
000
FTUS46 KMFR 300524
TAFLMT
TAF
KLMT 300524Z 3006/3106 VRB04KT P6SM SKC
     FM302100 25009KT P6SM FEW250
     FM302300 27011KT P6SM SCT250=

USA.gov is the U.S. government's official web portal to all federal, state and local government web resources and services.